createdAt,value
2023-03-22T00:00:00.590Z,0.93
2023-03-22T00:02:27.721Z,0.90
2023-03-22T00:04:54.888Z,0.80
2023-03-22T00:07:22.051Z,0.80
2023-03-22T00:09:49.021Z,0.90
2023-03-22T00:12:16.381Z,0.90
2023-03-22T00:14:43.311Z,0.80
2023-03-22T00:17:10.389Z,0.90
2023-03-22T00:19:37.553Z,1.15
2023-03-22T00:22:06.412Z,0.90
2023-03-22T00:24:33.501Z,0.90
2023-03-22T00:27:01.141Z,0.82
2023-03-22T00:29:27.990Z,0.98
2023-03-22T00:31:56.175Z,0.90
2023-03-22T00:34:23.327Z,0.90
2023-03-22T00:36:51.917Z,1.00
2023-03-22T00:39:18.903Z,0.80
2023-03-22T00:41:45.838Z,0.90
2023-03-22T00:44:12.584Z,0.98
2023-03-22T00:46:39.550Z,0.90
2023-03-22T00:49:06.266Z,0.90
2023-03-22T00:51:33.019Z,0.98
2023-03-22T00:54:00.008Z,0.80
2023-03-22T00:56:28.761Z,0.90
2023-03-22T00:59:10.181Z,0.77
2023-03-22T01:01:37.153Z,0.90
2023-03-22T01:04:05.170Z,0.82
2023-03-22T01:06:33.339Z,0.98
2023-03-22T01:09:00.214Z,0.80
2023-03-22T01:11:27.593Z,0.80
2023-03-22T01:13:55.723Z,1.00
2023-03-22T01:16:22.625Z,0.90
2023-03-22T01:18:49.595Z,0.90
2023-03-22T01:21:16.678Z,0.95
2023-03-22T01:23:43.455Z,1.00
2023-03-22T01:26:10.262Z,1.10
2023-03-22T01:28:37.097Z,1.13
2023-03-22T01:31:04.249Z,1.10
2023-03-22T01:33:31.132Z,1.00
2023-03-22T01:35:58.396Z,1.00
2023-03-22T01:38:25.699Z,0.95
2023-03-22T01:40:58.968Z,1.10
2023-03-22T01:43:28.048Z,0.90
2023-03-22T01:45:56.877Z,0.90
2023-03-22T01:48:46.628Z,0.90
2023-03-22T01:51:17.093Z,0.80
2023-03-22T01:54:19.545Z,0.80
2023-03-22T01:56:47.195Z,1.00
2023-03-22T01:59:22.652Z,0.82
2023-03-22T02:02:10.821Z,1.00
2023-03-22T02:04:39.397Z,1.00
2023-03-22T02:09:43.565Z,0.75
2023-03-22T02:12:36.863Z,1.00
2023-03-22T02:15:33.739Z,0.98
2023-03-22T02:18:33.824Z,0.90
2023-03-22T02:21:25.409Z,1.05
2023-03-22T02:24:11.238Z,1.00
2023-03-22T02:26:54.484Z,1.10
2023-03-22T02:30:10.593Z,1.00
2023-03-22T02:33:02.423Z,0.90
2023-03-22T02:35:51.552Z,1.00
2023-03-22T02:38:53.799Z,1.02
2023-03-22T02:41:26.599Z,0.90
2023-03-22T02:44:04.113Z,0.95
2023-03-22T02:46:30.854Z,1.08
2023-03-22T02:49:07.822Z,0.90
2023-03-22T02:51:42.386Z,1.10
2023-03-22T02:54:31.008Z,1.10
2023-03-22T02:57:21.858Z,1.15
2023-03-22T02:59:52.361Z,1.10
2023-03-22T03:02:20.866Z,1.05
2023-03-22T03:04:51.281Z,1.00
2023-03-22T03:09:51.207Z,1.00
2023-03-22T03:12:21.117Z,1.13
2023-03-22T03:14:48.144Z,1.00
2023-03-22T03:18:02.373Z,1.20
2023-03-22T03:20:52.364Z,1.30
2023-03-22T03:23:25.185Z,1.10
2023-03-22T03:26:17.474Z,1.20
2023-03-22T03:29:09.063Z,1.30
2023-03-22T03:31:41.451Z,1.27
2023-03-22T03:34:19.479Z,1.30
2023-03-22T03:36:53.402Z,1.30
2023-03-22T03:39:22.174Z,1.13
2023-03-22T03:41:55.195Z,1.27
2023-03-22T03:44:22.844Z,1.20
2023-03-22T03:46:52.375Z,1.10
2023-03-22T03:49:21.957Z,1.20
2023-03-22T03:51:52.190Z,1.13
2023-03-22T03:54:19.979Z,1.10
2023-03-22T03:56:48.258Z,1.20
2023-03-22T03:59:16.671Z,1.30
2023-03-22T04:01:51.840Z,1.92
2023-03-22T04:04:28.239Z,1.83
2023-03-22T04:07:04.858Z,2.10
2023-03-22T04:09:35.265Z,2.38
2023-03-22T04:12:10.486Z,1.40
2023-03-22T04:14:37.967Z,1.40
2023-03-22T04:17:13.220Z,1.50
2023-03-22T04:19:42.231Z,3.78
2023-03-22T04:22:14.594Z,1.60
2023-03-22T04:24:41.585Z,1.88
2023-03-22T04:27:09.013Z,2.47
2023-03-22T04:29:54.519Z,1.40
2023-03-22T04:32:42.793Z,1.40
2023-03-22T04:35:11.095Z,1.10
2023-03-22T04:37:38.081Z,1.38
2023-03-22T04:40:17.014Z,1.20
2023-03-22T04:42:57.606Z,1.30
2023-03-22T04:45:42.174Z,1.20
2023-03-22T04:48:11.233Z,1.08
2023-03-22T04:50:40.376Z,1.20
2023-03-22T04:53:08.156Z,1.05
2023-03-22T04:55:35.484Z,1.10
2023-03-22T04:58:02.455Z,1.48
2023-03-22T05:00:30.713Z,6.22
2023-03-22T05:02:59.386Z,2.17
2023-03-22T05:05:32.937Z,1.20
2023-03-22T05:08:01.682Z,1.10
2023-03-22T05:10:28.558Z,2.47
2023-03-22T05:12:57.795Z,2.58
2023-03-22T05:15:28.583Z,2.42
2023-03-22T05:17:55.859Z,2.55
2023-03-22T05:20:24.956Z,1.40
2023-03-22T05:23:21.173Z,1.55
2023-03-22T05:25:53.502Z,4.78
2023-03-22T05:28:22.270Z,1.27
2023-03-22T05:31:08.310Z,1.00
2023-03-22T05:33:46.616Z,1.00
2023-03-22T05:36:15.387Z,1.00
2023-03-22T05:39:00.881Z,0.90
2023-03-22T05:41:27.895Z,1.70
2023-03-22T05:43:55.099Z,2.30
2023-03-22T05:46:22.146Z,3.10
2023-03-22T05:49:12.294Z,7.13
2023-03-22T05:51:42.104Z,7.40
2023-03-22T05:54:10.860Z,4.03
2023-03-22T05:56:44.271Z,10.55
2023-03-22T05:59:11.065Z,2.53
2023-03-22T06:01:39.437Z,2.65
2023-03-22T06:04:26.536Z,1.60
2023-03-22T06:07:00.220Z,2.25
2023-03-22T06:09:50.216Z,1.80
2023-03-22T06:12:30.218Z,2.40
2023-03-22T06:17:59.771Z,3.88
2023-03-22T06:20:30.048Z,4.43
2023-03-22T06:23:02.504Z,4.78
2023-03-22T06:25:29.417Z,7.82
2023-03-22T06:27:56.502Z,3.72
2023-03-22T06:30:23.949Z,3.88
2023-03-22T06:33:23.007Z,1.90
2023-03-22T06:35:55.476Z,1.90
2023-03-22T06:38:32.627Z,2.40
2023-03-22T06:40:59.548Z,2.20
2023-03-22T06:43:26.499Z,1.83
2023-03-22T06:46:01.173Z,1.90
2023-03-22T06:48:33.361Z,2.50
2023-03-22T06:51:06.930Z,3.38
2023-03-22T06:53:35.557Z,3.15
2023-03-22T06:56:04.151Z,2.47
2023-03-22T06:58:41.145Z,3.22
2023-03-22T07:01:08.033Z,3.20
2023-03-22T07:03:36.905Z,5.20
2023-03-22T07:06:09.044Z,4.20
2023-03-22T07:08:39.666Z,2.88
2023-03-22T07:11:08.648Z,2.90
2023-03-22T07:13:36.090Z,2.28
2023-03-22T07:16:09.809Z,2.45
2023-03-22T07:18:44.009Z,3.60
2023-03-22T07:21:10.838Z,2.90
2023-03-22T07:23:40.382Z,2.47
2023-03-22T07:26:13.323Z,2.35
2023-03-22T07:28:44.610Z,2.25
2023-03-22T07:31:14.243Z,2.60
2023-03-22T07:33:52.064Z,2.70
2023-03-22T07:36:23.883Z,2.80
2023-03-22T07:38:52.264Z,3.03
2023-03-22T07:41:27.604Z,2.50
2023-03-22T07:44:17.647Z,2.28
2023-03-22T07:47:04.143Z,2.30
2023-03-22T07:49:45.716Z,1.73
2023-03-22T07:52:19.350Z,1.65
2023-03-22T07:54:47.264Z,1.83
2023-03-22T07:57:13.964Z,2.65
2023-03-22T07:59:47.266Z,3.28
2023-03-22T08:02:14.772Z,3.25
2023-03-22T08:04:48.491Z,2.97
2023-03-22T08:07:22.056Z,3.80
2023-03-22T08:09:49.555Z,3.40
2023-03-22T08:12:16.501Z,2.92
2023-03-22T08:14:50.979Z,3.15
2023-03-22T08:17:21.918Z,2.90
2023-03-22T08:19:49.991Z,2.80
2023-03-22T08:22:25.941Z,2.38
2023-03-22T08:25:12.112Z,2.67
2023-03-22T08:27:39.947Z,2.88
2023-03-22T08:30:07.618Z,2.58
2023-03-22T08:32:34.606Z,2.20
2023-03-22T08:35:02.494Z,2.03
2023-03-22T08:37:29.263Z,2.30
2023-03-22T08:39:56.285Z,2.33
2023-03-22T08:42:31.709Z,2.25
2023-03-22T08:44:58.482Z,2.10
2023-03-22T08:47:27.843Z,2.10
2023-03-22T08:49:59.218Z,2.35
2023-03-22T08:52:39.825Z,2.40
2023-03-22T08:55:17.491Z,2.20
2023-03-22T08:58:16.417Z,2.42
2023-03-22T09:01:03.623Z,2.20
2023-03-22T09:03:43.039Z,2.67
2023-03-22T09:06:10.799Z,2.25
2023-03-22T09:08:41.268Z,1.67
2023-03-22T09:11:13.070Z,1.90
2023-03-22T09:13:41.594Z,1.48
2023-03-22T09:16:09.416Z,1.63
2023-03-22T09:18:38.006Z,1.70
2023-03-22T09:21:11.400Z,1.70
2023-03-22T09:23:47.838Z,2.22
2023-03-22T09:26:16.940Z,1.67
2023-03-22T09:28:48.750Z,1.95
2023-03-22T09:31:19.094Z,2.00
2023-03-22T09:33:48.305Z,2.30
2023-03-22T09:36:15.858Z,2.30
2023-03-22T09:38:42.717Z,2.00
2023-03-22T09:41:18.414Z,2.05
2023-03-22T09:43:57.900Z,1.90
2023-03-22T09:49:19.282Z,1.40
2023-03-22T09:51:51.463Z,1.73
2023-03-22T09:54:26.984Z,1.83
2023-03-22T09:57:02.234Z,1.67
2023-03-22T09:59:47.820Z,1.30
2023-03-22T10:02:36.316Z,1.50
2023-03-22T10:05:29.267Z,1.60
2023-03-22T10:07:59.088Z,1.70
2023-03-22T10:10:26.558Z,1.50
2023-03-22T10:13:13.818Z,1.20
2023-03-22T10:15:48.109Z,1.35
2023-03-22T10:18:35.877Z,1.20
2023-03-22T10:21:09.265Z,1.40
2023-03-22T10:23:47.990Z,1.33
2023-03-22T10:26:38.561Z,1.23
2023-03-22T10:29:12.500Z,1.30
2023-03-22T10:31:43.423Z,1.30
2023-03-22T10:34:24.815Z,1.13
2023-03-22T10:36:53.006Z,1.10
2023-03-22T10:39:34.489Z,1.20
2023-03-22T10:42:04.080Z,1.50
2023-03-22T10:44:37.950Z,1.30
2023-03-22T10:47:08.249Z,1.38
2023-03-22T10:49:49.802Z,1.58
2023-03-22T10:52:23.009Z,1.38
2023-03-22T10:54:49.961Z,1.88
2023-03-22T10:57:17.441Z,1.60
2023-03-22T10:59:57.090Z,1.60
2023-03-22T11:02:30.063Z,1.60
2023-03-22T11:05:03.842Z,1.60
2023-03-22T11:07:31.174Z,1.80
2023-03-22T11:09:59.652Z,1.52
2023-03-22T11:12:26.328Z,1.40
2023-03-22T11:14:53.109Z,1.55
2023-03-22T11:17:25.415Z,1.60
2023-03-22T11:20:07.817Z,1.40
2023-03-22T11:22:40.265Z,1.50
2023-03-22T11:25:14.659Z,1.60
2023-03-22T11:27:56.891Z,1.55
2023-03-22T11:30:29.224Z,1.80
2023-03-22T11:33:08.195Z,1.40
2023-03-22T11:35:39.180Z,1.60
2023-03-22T11:38:06.182Z,1.60
2023-03-22T11:40:36.116Z,1.80
2023-03-22T11:43:27.230Z,1.73
2023-03-22T11:45:57.834Z,1.60
2023-03-22T11:48:27.362Z,1.75
2023-03-22T11:51:03.532Z,1.60
2023-03-22T11:53:35.261Z,1.88
2023-03-22T11:56:03.033Z,1.50
2023-03-22T11:59:00.000Z,1.80
2023-03-22T12:01:43.117Z,1.63
2023-03-22T12:04:15.110Z,1.50
2023-03-22T12:06:43.309Z,1.52
2023-03-22T12:09:32.393Z,1.50
2023-03-22T12:12:01.778Z,1.50
2023-03-22T12:14:54.105Z,1.40
2023-03-22T12:17:41.516Z,1.30
2023-03-22T12:20:21.022Z,1.25
2023-03-22T12:22:52.699Z,1.70
2023-03-22T12:25:29.052Z,1.55
2023-03-22T12:27:59.289Z,1.25
2023-03-22T12:30:31.299Z,1.52
2023-03-22T12:33:07.193Z,1.40
2023-03-22T12:35:36.362Z,1.50
2023-03-22T12:38:29.547Z,1.50
2023-03-22T12:41:00.548Z,1.40
2023-03-22T12:44:03.010Z,1.50
2023-03-22T12:46:40.070Z,1.50
2023-03-22T12:49:12.450Z,1.45
2023-03-22T12:51:42.126Z,1.55
2023-03-22T12:54:12.827Z,1.60
2023-03-22T12:56:46.125Z,1.40
2023-03-22T12:59:18.550Z,1.40
2023-03-22T13:01:52.707Z,1.50
2023-03-22T13:04:45.564Z,1.77
2023-03-22T13:07:15.343Z,1.70
2023-03-22T13:12:17.341Z,1.65
2023-03-22T13:14:50.209Z,1.60
2023-03-22T13:17:22.998Z,1.70
2023-03-22T13:20:12.032Z,1.70
2023-03-22T13:22:38.974Z,1.85
2023-03-22T13:25:16.994Z,1.77
2023-03-22T13:27:54.040Z,1.75
2023-03-22T13:30:21.657Z,1.80
2023-03-22T13:32:56.215Z,1.80
2023-03-22T13:35:36.778Z,1.90
2023-03-22T13:38:09.847Z,1.92
2023-03-22T13:40:45.506Z,1.90
2023-03-22T13:43:28.449Z,2.00
2023-03-22T13:46:01.231Z,1.90
2023-03-22T13:48:39.409Z,2.00
2023-03-22T13:51:16.661Z,1.65
2023-03-22T13:53:58.815Z,1.75
2023-03-22T13:56:41.898Z,1.73
2023-03-22T13:59:23.796Z,1.80
2023-03-22T14:01:56.270Z,1.85
2023-03-22T14:04:30.189Z,1.90
2023-03-22T14:07:04.574Z,1.67
2023-03-22T14:09:45.442Z,1.65
2023-03-22T14:12:24.487Z,1.70
2023-03-22T14:14:57.048Z,1.67
2023-03-22T14:17:43.991Z,1.80
2023-03-22T14:20:17.234Z,1.70
